createdAt,value
2024-03-15T00:00:36.234Z,8.97
2024-03-15T00:01:36.188Z,8.97
2024-03-15T00:02:36.434Z,8.93
2024-03-15T00:03:36.318Z,8.97
2024-03-15T00:04:36.235Z,8.97
2024-03-15T00:05:36.258Z,8.98
2024-03-15T00:06:36.325Z,8.94
2024-03-15T00:07:36.303Z,8.99
2024-03-15T00:08:36.367Z,8.98
2024-03-15T00:09:36.343Z,8.94
2024-03-15T00:10:36.348Z,8.94
2024-03-15T00:11:36.333Z,8.94
2024-03-15T00:12:36.370Z,8.91
2024-03-15T00:13:36.496Z,8.97
2024-03-15T00:14:36.371Z,8.94
2024-03-15T00:15:36.466Z,8.94
2024-03-15T00:16:36.391Z,8.98
2024-03-15T00:17:36.455Z,8.98
2024-03-15T00:18:36.494Z,9.04
2024-03-15T00:19:36.452Z,8.99
2024-03-15T00:20:36.491Z,9.01
2024-03-15T00:21:36.635Z,8.98
2024-03-15T00:22:36.498Z,8.99
2024-03-15T00:23:36.561Z,8.99
2024-03-15T00:24:36.555Z,8.97
2024-03-15T00:25:36.586Z,8.94
2024-03-15T00:26:36.579Z,8.94
2024-03-15T00:27:36.674Z,8.94
2024-03-15T00:28:36.640Z,8.93
2024-03-15T00:29:36.623Z,8.91
2024-03-15T00:30:36.762Z,8.87
2024-03-15T00:31:36.706Z,8.87
2024-03-15T00:32:36.691Z,8.86
2024-03-15T00:33:36.782Z,8.84
2024-03-15T00:34:36.705Z,8.79
2024-03-15T00:35:36.724Z,8.80
2024-03-15T00:36:36.810Z,8.77
2024-03-15T00:37:36.772Z,8.75
2024-03-15T00:38:36.783Z,8.79
2024-03-15T00:39:36.882Z,8.79
2024-03-15T00:40:36.800Z,8.75
2024-03-15T00:41:36.845Z,8.74
2024-03-15T00:42:36.892Z,8.74
2024-03-15T00:43:36.896Z,8.69
2024-03-15T00:44:36.900Z,8.72
2024-03-15T00:45:36.953Z,8.74
2024-03-15T00:46:36.961Z,8.69
2024-03-15T00:47:37.123Z,8.69
2024-03-15T00:48:37.062Z,8.68
2024-03-15T00:49:37.017Z,8.68
2024-03-15T00:50:37.032Z,8.66
2024-03-15T00:51:37.106Z,8.65
2024-03-15T00:52:37.078Z,8.66
2024-03-15T00:53:37.118Z,8.65
2024-03-15T00:54:37.169Z,8.69
2024-03-15T00:55:37.129Z,8.65
2024-03-15T00:56:37.166Z,8.69
2024-03-15T00:57:37.246Z,8.64
2024-03-15T00:58:37.227Z,8.65
2024-03-15T00:59:37.244Z,8.64
2024-03-15T01:00:37.293Z,8.65
2024-03-15T01:01:37.333Z,8.65
2024-03-15T01:02:37.338Z,8.65
2024-03-15T01:03:37.380Z,8.65
2024-03-15T01:04:37.355Z,8.66
2024-03-15T01:05:37.377Z,8.59
2024-03-15T01:06:37.412Z,8.57
2024-03-15T01:07:37.412Z,8.57
2024-03-15T01:08:37.467Z,8.54
2024-03-15T01:09:37.499Z,8.57
2024-03-15T01:10:37.508Z,8.57
2024-03-15T01:11:37.526Z,8.59
2024-03-15T01:12:37.588Z,8.59
2024-03-15T01:13:37.583Z,8.62
2024-03-15T01:14:37.561Z,8.65
2024-03-15T01:15:37.614Z,8.65
2024-03-15T01:16:37.683Z,8.66
2024-03-15T01:17:37.778Z,8.66
2024-03-15T01:18:37.734Z,8.68
2024-03-15T01:19:37.696Z,8.71
2024-03-15T01:20:37.731Z,8.74
2024-03-15T01:21:37.784Z,8.71
2024-03-15T01:22:37.793Z,8.75
2024-03-15T01:23:37.838Z,8.75
2024-03-15T01:24:37.840Z,8.74
2024-03-15T01:25:37.859Z,8.79
2024-03-15T01:26:37.877Z,8.77
2024-03-15T01:27:38.005Z,8.80
2024-03-15T01:28:37.961Z,8.77
2024-03-15T01:29:37.957Z,8.77
2024-03-15T01:30:38.072Z,8.79
2024-03-15T01:31:38.041Z,8.77
2024-03-15T01:32:38.095Z,8.79
2024-03-15T01:33:38.168Z,8.74
2024-03-15T01:34:38.129Z,8.77
2024-03-15T01:35:38.166Z,8.77
2024-03-15T01:36:38.205Z,8.80
2024-03-15T01:37:38.178Z,8.75
2024-03-15T01:38:38.231Z,8.77
2024-03-15T01:39:38.275Z,8.74
2024-03-15T01:40:38.267Z,8.75
2024-03-15T01:41:38.268Z,8.75
2024-03-15T01:42:38.306Z,8.77
2024-03-15T01:43:38.344Z,8.74
2024-03-15T01:44:38.331Z,8.79
2024-03-15T01:45:38.502Z,8.79
2024-03-15T01:46:38.366Z,8.79
2024-03-15T01:47:38.492Z,8.80
2024-03-15T01:48:38.543Z,8.80
2024-03-15T01:49:38.449Z,8.82
2024-03-15T01:50:38.467Z,8.83
2024-03-15T01:51:38.549Z,8.84
2024-03-15T01:52:38.508Z,8.83
2024-03-15T01:53:38.600Z,8.83
2024-03-15T01:54:38.624Z,8.84
2024-03-15T01:55:38.608Z,8.80
2024-03-15T01:56:38.607Z,8.80
2024-03-15T01:57:38.714Z,8.83
2024-03-15T01:58:38.684Z,8.80
2024-03-15T01:59:38.678Z,8.80
2024-03-15T02:00:38.734Z,8.79
2024-03-15T02:01:38.752Z,8.77
2024-03-15T02:02:38.731Z,8.80
2024-03-15T02:03:38.825Z,8.82
2024-03-15T02:04:38.785Z,8.79
2024-03-15T02:05:38.806Z,8.82
2024-03-15T02:06:38.854Z,8.80
2024-03-15T02:07:38.852Z,8.82
2024-03-15T02:08:38.903Z,8.83
2024-03-15T02:09:38.898Z,8.82
2024-03-15T02:10:39.047Z,8.80
2024-03-15T02:11:38.953Z,8.80
2024-03-15T02:12:38.964Z,8.82
2024-03-15T02:13:39.045Z,8.82
2024-03-15T02:14:39.022Z,8.84
2024-03-15T02:15:39.144Z,8.86
2024-03-15T02:16:39.075Z,8.83
2024-03-15T02:17:39.189Z,8.80
2024-03-15T02:18:39.150Z,8.82
2024-03-15T02:19:39.143Z,8.82
2024-03-15T02:20:39.197Z,8.82
2024-03-15T02:21:39.209Z,8.80
2024-03-15T02:22:39.223Z,8.82
2024-03-15T02:23:39.309Z,8.82
2024-03-15T02:24:39.317Z,8.80
2024-03-15T02:25:39.306Z,8.79
2024-03-15T02:26:39.309Z,8.79
2024-03-15T02:27:39.396Z,8.75
2024-03-15T02:28:39.404Z,8.74
2024-03-15T02:29:39.396Z,8.69
2024-03-15T02:30:39.507Z,8.71
2024-03-15T02:31:39.450Z,8.72
2024-03-15T02:32:39.511Z,8.66
2024-03-15T02:33:39.571Z,8.68
2024-03-15T02:34:39.746Z,8.66
2024-03-15T02:35:39.532Z,8.65
2024-03-15T02:36:39.594Z,8.66
2024-03-15T02:37:39.594Z,8.65
2024-03-15T02:38:39.630Z,8.64
2024-03-15T02:39:39.655Z,8.61
2024-03-15T02:40:39.632Z,8.62
2024-03-15T02:41:39.670Z,8.62
2024-03-15T02:42:39.826Z,8.59
2024-03-15T02:43:39.755Z,8.61
2024-03-15T02:44:39.755Z,8.59
2024-03-15T02:45:39.805Z,8.57
2024-03-15T02:46:39.804Z,8.57
2024-03-15T02:47:39.846Z,8.56
2024-03-15T02:48:40.009Z,8.57
2024-03-15T02:49:39.876Z,8.57
2024-03-15T02:50:39.902Z,8.56
2024-03-15T02:51:40.027Z,8.57
2024-03-15T02:52:39.945Z,8.53
2024-03-15T02:53:40.008Z,8.56
2024-03-15T02:54:40.109Z,8.48
2024-03-15T02:55:40.036Z,8.47
2024-03-15T02:56:40.064Z,8.44
2024-03-15T02:57:40.165Z,8.43
2024-03-15T02:58:40.137Z,8.41
2024-03-15T02:59:40.147Z,8.39
2024-03-15T03:00:40.212Z,8.33
2024-03-15T03:01:40.234Z,8.33
2024-03-15T03:02:40.229Z,8.33
2024-03-15T03:03:40.310Z,8.32
2024-03-15T03:04:40.281Z,8.31
2024-03-15T03:05:40.321Z,8.31
2024-03-15T03:06:40.379Z,8.28
2024-03-15T03:07:40.381Z,8.29
2024-03-15T03:08:40.441Z,8.28
2024-03-15T03:09:40.516Z,8.25
2024-03-15T03:10:40.447Z,8.28
2024-03-15T03:11:40.489Z,8.26
2024-03-15T03:12:40.577Z,8.29
2024-03-15T03:13:40.610Z,8.29
2024-03-15T03:14:40.559Z,8.29
2024-03-15T03:15:40.638Z,8.32
2024-03-15T03:16:40.635Z,8.33
2024-03-15T03:17:40.680Z,8.33
2024-03-15T03:18:40.749Z,8.32
2024-03-15T03:19:40.736Z,8.32
2024-03-15T03:20:40.754Z,8.33
2024-03-15T03:21:40.929Z,8.32
2024-03-15T03:22:40.820Z,8.33
2024-03-15T03:23:40.886Z,8.32
2024-03-15T03:24:40.897Z,8.32
2024-03-15T03:25:40.897Z,8.33
2024-03-15T03:26:40.941Z,8.31
2024-03-15T03:27:41.011Z,8.31
2024-03-15T03:28:41.028Z,8.26
2024-03-15T03:29:41.016Z,8.28
2024-03-15T03:30:41.052Z,8.29
2024-03-15T03:31:41.112Z,8.32
2024-03-15T03:32:41.233Z,8.31
2024-03-15T03:33:41.213Z,8.31
2024-03-15T03:34:41.180Z,8.31
2024-03-15T03:35:41.208Z,8.29
2024-03-15T03:36:41.308Z,8.26
2024-03-15T03:37:41.278Z,8.22
2024-03-15T03:38:41.325Z,8.20
2024-03-15T03:39:41.431Z,8.17
2024-03-15T03:40:41.379Z,8.20
2024-03-15T03:41:41.421Z,8.17
2024-03-15T03:42:41.538Z,8.18
2024-03-15T03:43:41.535Z,8.15
2024-03-15T03:44:41.529Z,8.14
2024-03-15T03:45:43.022Z,8.10
2024-03-15T03:46:41.618Z,8.10
2024-03-15T03:47:41.673Z,8.07
2024-03-15T03:48:41.825Z,8.07
2024-03-15T03:49:41.747Z,8.07
2024-03-15T03:50:41.750Z,8.00
2024-03-15T03:51:41.831Z,8.04
2024-03-15T03:52:41.816Z,7.99
2024-03-15T03:53:41.896Z,8.04
2024-03-15T03:54:41.902Z,8.00
2024-03-15T03:55:41.932Z,7.99
2024-03-15T03:56:41.950Z,8.00
2024-03-15T03:57:45.390Z,8.02
2024-03-15T03:58:42.069Z,8.00
2024-03-15T03:59:42.070Z,8.00
2024-03-15T04:00:42.298Z,7.99
2024-03-15T04:01:42.156Z,7.99
2024-03-15T04:02:42.164Z,7.96
2024-03-15T04:03:42.286Z,7.99
2024-03-15T04:04:42.255Z,8.04
2024-03-15T04:05:42.285Z,8.02
2024-03-15T04:06:42.333Z,8.04
2024-03-15T04:07:42.376Z,8.05
2024-03-15T04:08:42.475Z,8.04
2024-03-15T04:09:42.429Z,8.08
2024-03-15T04:10:42.478Z,8.11
2024-03-15T04:11:42.567Z,8.10
2024-03-15T04:12:42.577Z,8.13
2024-03-15T04:13:42.616Z,8.18
2024-03-15T04:14:50.928Z,8.14
2024-03-15T04:15:42.688Z,8.17
2024-03-15T04:16:42.671Z,8.17
2024-03-15T04:17:42.743Z,8.22
2024-03-15T04:18:42.788Z,8.17
2024-03-15T04:19:43.087Z,8.22
2024-03-15T04:20:42.834Z,8.22
2024-03-15T04:21:42.966Z,8.23
2024-03-15T04:22:42.927Z,8.26
2024-03-15T04:23:43.005Z,8.26
2024-03-15T04:24:43.022Z,8.29
2024-03-15T04:25:43.064Z,8.28
2024-03-15T04:26:43.069Z,8.25
2024-03-15T04:27:43.205Z,8.26
2024-03-15T04:28:43.194Z,8.26
2024-03-15T04:29:43.203Z,8.25
2024-03-15T04:30:43.329Z,8.28
2024-03-15T04:31:43.269Z,8.26
2024-03-15T04:32:43.337Z,8.31
2024-03-15T04:33:43.436Z,8.28
2024-03-15T04:34:43.376Z,8.31
2024-03-15T04:35:43.439Z,8.31
2024-03-15T04:36:43.523Z,8.31
2024-03-15T04:37:43.488Z,8.28
2024-03-15T04:38:43.568Z,8.31
2024-03-15T04:39:43.638Z,8.31
2024-03-15T04:40:43.633Z,8.31
2024-03-15T04:41:43.679Z,8.29
2024-03-15T04:42:43.995Z,8.33
2024-03-15T04:43:43.771Z,8.35
2024-03-15T04:44:43.766Z,8.31
2024-03-15T04:45:43.848Z,8.32
2024-03-15T04:46:43.845Z,8.32
2024-03-15T04:47:44.001Z,8.29
2024-03-15T04:48:43.965Z,8.29
2024-03-15T04:49:43.956Z,8.28
2024-03-15T04:50:44.011Z,8.26
2024-03-15T04:51:44.055Z,8.25
2024-03-15T04:52:44.074Z,8.22
2024-03-15T04:53:44.149Z,8.23
2024-03-15T04:54:44.217Z,8.18
2024-03-15T04:55:44.194Z,8.23
2024-03-15T04:56:44.209Z,8.22
2024-03-15T04:57:44.329Z,8.23
2024-03-15T04:58:44.314Z,8.23
2024-03-15T04:59:44.327Z,8.22
2024-03-15T05:00:44.409Z,8.25
2024-03-15T05:01:44.463Z,8.20
2024-03-15T05:02:44.452Z,8.22
2024-03-15T05:03:44.583Z,8.26
2024-03-15T05:04:44.544Z,8.23
2024-03-15T05:05:44.581Z,8.23
2024-03-15T05:06:44.688Z,8.23
2024-03-15T05:07:44.668Z,8.25
2024-03-15T05:08:51.333Z,8.22
2024-03-15T05:09:44.855Z,8.25
2024-03-15T05:10:44.915Z,8.25
2024-03-15T05:11:44.863Z,8.23
2024-03-15T05:12:45.318Z,8.25
2024-03-15T05:13:44.945Z,8.26
2024-03-15T05:14:44.908Z,8.25
2024-03-15T05:15:45.024Z,8.20
2024-03-15T05:16:45.001Z,8.22
2024-03-15T05:17:45.107Z,8.17
2024-03-15T05:18:45.163Z,8.18
2024-03-15T05:19:45.112Z,8.20
2024-03-15T05:20:45.151Z,8.22
2024-03-15T05:21:45.342Z,8.20
2024-03-15T05:22:45.848Z,8.22
2024-03-15T05:23:45.290Z,8.22
2024-03-15T05:24:45.326Z,8.22
2024-03-15T05:25:46.821Z,8.22
2024-03-15T05:26:45.372Z,8.17
2024-03-15T05:27:45.471Z,8.18
2024-03-15T05:28:45.468Z,8.22
2024-03-15T05:29:45.532Z,8.18
2024-03-15T05:30:45.679Z,8.20
2024-03-15T05:31:45.568Z,8.18
2024-03-15T05:32:45.640Z,8.17
2024-03-15T05:33:45.735Z,8.17
2024-03-15T05:34:45.664Z,8.14
2024-03-15T05:35:45.695Z,8.15
2024-03-15T05:36:45.925Z,8.17
2024-03-15T05:37:45.782Z,8.13
2024-03-15T05:38:45.833Z,8.14
2024-03-15T05:39:45.962Z,8.13
2024-03-15T05:40:45.870Z,8.10
2024-03-15T05:41:45.907Z,8.13
2024-03-15T05:42:46.022Z,8.11
2024-03-15T05:43:46.001Z,8.13
2024-03-15T05:44:46.023Z,8.13
2024-03-15T05:45:46.148Z,8.14
2024-03-15T05:46:46.096Z,8.20
2024-03-15T05:47:46.168Z,8.17
2024-03-15T05:48:46.217Z,8.15
2024-03-15T05:49:46.214Z,8.17
2024-03-15T05:50:46.254Z,8.17
2024-03-15T05:51:46.415Z,8.17
2024-03-15T05:52:46.302Z,8.20
2024-03-15T05:53:48.444Z,8.18
2024-03-15T05:54:46.407Z,8.22
2024-03-15T05:55:46.424Z,8.20
2024-03-15T05:56:46.432Z,8.23
2024-03-15T05:57:46.534Z,8.22
2024-03-15T05:58:46.526Z,8.22
2024-03-15T05:59:46.608Z,8.22
2024-03-15T06:00:46.648Z,8.25
2024-03-15T06:01:46.653Z,8.25
2024-03-15T06:02:46.673Z,8.25
2024-03-15T06:03:46.792Z,8.28
2024-03-15T06:04:46.742Z,8.28
2024-03-15T06:05:46.791Z,8.31
2024-03-15T06:06:46.950Z,8.31
2024-03-15T06:07:47.763Z,8.31
2024-03-15T06:08:46.913Z,8.31
2024-03-15T06:09:47.004Z,8.33
2024-03-15T06:10:46.997Z,8.32
2024-03-15T06:11:47.055Z,8.36
2024-03-15T06:12:47.139Z,8.39
2024-03-15T06:13:47.131Z,8.43
2024-03-15T06:14:47.152Z,8.43
2024-03-15T06:15:47.258Z,8.46
2024-03-15T06:16:47.218Z,8.48
2024-03-15T06:17:47.305Z,8.47
2024-03-15T06:18:47.459Z,8.46
2024-03-15T06:19:47.330Z,8.48
2024-03-15T06:20:49.999Z,8.47
2024-03-15T06:21:47.545Z,8.47
2024-03-15T06:22:47.427Z,8.48
2024-03-15T06:23:47.511Z,8.48
2024-03-15T06:24:47.548Z,8.50
2024-03-15T06:25:47.574Z,8.50
2024-03-15T06:26:47.577Z,8.50
2024-03-15T06:27:47.681Z,8.51
2024-03-15T06:28:47.671Z,8.50
2024-03-15T06:29:47.686Z,8.54
2024-03-15T06:30:47.758Z,8.56
2024-03-15T06:31:47.758Z,8.56
2024-03-15T06:32:47.891Z,8.61
2024-03-15T06:33:47.911Z,8.59
2024-03-15T06:34:47.868Z,8.61
2024-03-15T06:35:47.872Z,8.64
2024-03-15T06:36:47.977Z,8.59
2024-03-15T06:37:47.970Z,8.66
2024-03-15T06:38:47.997Z,8.68
2024-03-15T06:39:48.131Z,8.68
2024-03-15T06:40:48.038Z,8.71
2024-03-15T06:41:48.085Z,8.71
2024-03-15T06:42:48.142Z,8.75
2024-03-15T06:43:48.161Z,8.77
2024-03-15T06:44:48.284Z,8.82
2024-03-15T06:45:48.213Z,8.84
2024-03-15T06:46:48.198Z,8.87
2024-03-15T06:47:48.234Z,8.91
2024-03-15T06:48:48.433Z,8.94
2024-03-15T06:49:48.290Z,9.01
2024-03-15T06:50:48.303Z,9.02
2024-03-15T06:51:48.422Z,9.04
2024-03-15T06:52:48.373Z,9.08
2024-03-15T06:53:48.429Z,9.12
2024-03-15T06:54:48.560Z,9.16
2024-03-15T06:55:48.465Z,9.16
2024-03-15T06:56:48.475Z,9.20
2024-03-15T06:57:48.533Z,9.23
2024-03-15T06:58:48.568Z,9.27
2024-03-15T06:59:48.552Z,9.28
2024-03-15T07:00:48.644Z,9.33
2024-03-15T07:01:48.616Z,9.35
2024-03-15T07:02:48.618Z,9.39
2024-03-15T07:03:48.752Z,9.43
2024-03-15T07:04:48.665Z,9.48
2024-03-15T07:05:48.718Z,9.51
2024-03-15T07:06:48.699Z,9.56
2024-03-15T07:07:48.736Z,9.60
2024-03-15T07:08:50.725Z,9.63
2024-03-15T07:09:48.846Z,9.70
2024-03-15T07:10:48.856Z,9.67
2024-03-15T07:11:49.732Z,9.72
2024-03-15T07:12:48.890Z,9.74
2024-03-15T07:13:48.871Z,9.75
2024-03-15T07:14:50.483Z,9.82
2024-03-15T07:15:48.960Z,9.84
2024-03-15T07:16:48.908Z,9.86
2024-03-15T07:17:49.148Z,9.88
2024-03-15T07:18:49.247Z,9.90
2024-03-15T07:19:49.065Z,9.93
2024-03-15T07:20:48.949Z,9.94
2024-03-15T07:21:49.175Z,9.97
2024-03-15T07:22:49.275Z,10.02
2024-03-15T07:23:49.051Z,10.03
2024-03-15T07:24:49.050Z,10.02
2024-03-15T07:25:49.049Z,10.06
2024-03-15T07:26:49.082Z,10.07
2024-03-15T07:27:49.137Z,10.11
2024-03-15T07:28:49.072Z,10.14
2024-03-15T07:29:49.176Z,10.17
2024-03-15T07:30:49.143Z,10.18
2024-03-15T07:31:49.142Z,10.21
2024-03-15T07:32:49.255Z,10.21
2024-03-15T07:33:49.181Z,10.24
2024-03-15T07:34:49.143Z,10.21
2024-03-15T07:35:49.254Z,10.25
2024-03-15T07:36:49.218Z,10.24
2024-03-15T07:37:49.228Z,10.27
2024-03-15T07:38:49.643Z,10.27
2024-03-15T07:39:50.147Z,10.24
2024-03-15T07:40:49.189Z,10.29
2024-03-15T07:41:49.224Z,10.24
2024-03-15T07:42:49.291Z,10.27
2024-03-15T07:43:49.215Z,10.27
2024-03-15T07:44:49.228Z,10.25
2024-03-15T07:45:49.479Z,10.27
2024-03-15T07:46:49.245Z,10.30
2024-03-15T07:47:49.302Z,10.30
2024-03-15T07:48:49.351Z,10.32
2024-03-15T07:49:49.248Z,10.37
2024-03-15T07:50:49.232Z,10.39
2024-03-15T07:51:49.323Z,10.47
2024-03-15T07:52:49.241Z,10.56
2024-03-15T07:53:49.270Z,10.61
2024-03-15T07:54:49.358Z,10.69
2024-03-15T07:55:49.252Z,10.74
2024-03-15T07:56:49.316Z,10.80
2024-03-15T07:57:49.432Z,10.88
2024-03-15T07:58:49.262Z,10.92
2024-03-15T07:59:49.294Z,10.96
2024-03-15T08:00:49.335Z,11.04
2024-03-15T08:01:49.498Z,11.07
2024-03-15T08:02:49.285Z,11.17
2024-03-15T08:03:49.322Z,11.24
2024-03-15T08:04:49.427Z,11.30
2024-03-15T08:05:49.314Z,11.31
2024-03-15T08:06:49.334Z,11.40
2024-03-15T08:07:49.304Z,11.45
2024-03-15T08:08:49.263Z,11.49
2024-03-15T08:09:49.353Z,11.50
2024-03-15T08:10:49.475Z,11.55
2024-03-15T08:11:49.353Z,11.60
2024-03-15T08:12:49.372Z,11.60
2024-03-15T08:13:49.260Z,11.60
2024-03-15T08:14:49.259Z,11.58
2024-03-15T08:15:49.318Z,11.60
2024-03-15T08:16:49.218Z,11.61
2024-03-15T08:17:49.309Z,11.60
2024-03-15T08:18:49.284Z,11.61
2024-03-15T08:19:49.227Z,11.61
2024-03-15T08:20:49.186Z,11.60
2024-03-15T08:21:49.495Z,11.61
2024-03-15T08:22:49.182Z,11.58
2024-03-15T08:23:49.168Z,11.56
2024-03-15T08:24:49.202Z,11.61
2024-03-15T08:25:49.135Z,11.58
2024-03-15T08:26:49.117Z,11.56
2024-03-15T08:27:50.438Z,11.60
2024-03-15T08:28:49.084Z,11.58
2024-03-15T08:29:49.095Z,11.58
2024-03-15T08:30:49.747Z,11.63
2024-03-15T08:31:49.110Z,11.67
2024-03-15T08:32:49.072Z,11.64
2024-03-15T08:33:49.213Z,11.67
2024-03-15T08:34:49.100Z,11.65
2024-03-15T08:35:49.015Z,11.71
2024-03-15T08:36:49.089Z,11.75
2024-03-15T08:37:48.994Z,11.78
2024-03-15T08:38:48.941Z,11.86
2024-03-15T08:39:48.959Z,11.89
2024-03-15T08:40:48.899Z,11.93
2024-03-15T08:41:48.865Z,11.99
2024-03-15T08:42:48.857Z,12.04
2024-03-15T08:43:48.820Z,12.11
2024-03-15T08:44:48.850Z,12.20
2024-03-15T08:45:48.787Z,12.24
2024-03-15T08:46:49.050Z,12.34
2024-03-15T08:47:59.049Z,12.44
2024-03-15T08:48:48.807Z,12.47
2024-03-15T08:49:48.680Z,12.55
2024-03-15T08:50:48.584Z,12.64
2024-03-15T08:51:48.569Z,12.77
2024-03-15T08:52:48.515Z,12.87
2024-03-15T08:53:48.489Z,12.97
2024-03-15T08:54:48.524Z,13.06
2024-03-15T08:55:48.431Z,13.15
2024-03-15T08:56:48.371Z,13.26
2024-03-15T08:57:48.439Z,13.36
2024-03-15T08:58:48.290Z,13.40
2024-03-15T08:59:48.297Z,13.47
2024-03-15T09:00:48.292Z,13.49
2024-03-15T09:01:48.259Z,13.49
2024-03-15T09:02:48.124Z,13.51
2024-03-15T09:03:48.499Z,13.55
2024-03-15T09:04:48.095Z,13.52
2024-03-15T09:05:48.019Z,13.52
2024-03-15T09:06:48.016Z,13.48
2024-03-15T09:07:47.985Z,13.47
2024-03-15T09:08:48.949Z,13.40
2024-03-15T09:09:47.916Z,13.37
2024-03-15T09:10:47.890Z,13.33
2024-03-15T09:11:47.802Z,13.30
2024-03-15T09:12:47.825Z,13.26
2024-03-15T09:13:49.416Z,13.24
2024-03-15T09:14:47.624Z,13.22
2024-03-15T09:15:47.611Z,13.20
2024-03-15T09:16:47.547Z,13.17
2024-03-15T09:17:47.655Z,13.17
2024-03-15T09:18:47.535Z,13.15
2024-03-15T09:19:47.365Z,13.13
2024-03-15T09:20:47.371Z,13.15
2024-03-15T09:21:47.326Z,13.17
2024-03-15T09:22:47.206Z,13.22
2024-03-15T09:23:47.173Z,13.24
2024-03-15T09:24:47.219Z,13.29
2024-03-15T09:25:47.100Z,13.37
2024-03-15T09:26:47.014Z,13.47
2024-03-15T09:27:47.104Z,13.52
2024-03-15T09:28:47.074Z,13.58
2024-03-15T09:29:46.908Z,13.61
2024-03-15T09:30:54.100Z,13.67
2024-03-15T09:32:00.678Z,13.69
2024-03-15T09:32:46.813Z,13.77
2024-03-15T09:33:46.759Z,13.80
2024-03-15T09:34:46.716Z,13.89
2024-03-15T09:35:46.567Z,13.98
2024-03-15T09:36:46.589Z,14.04
2024-03-15T09:37:46.580Z,14.10
2024-03-15T09:38:46.426Z,14.12
2024-03-15T09:39:46.428Z,14.13
2024-03-15T09:40:46.291Z,14.14
2024-03-15T09:41:46.242Z,14.16
2024-03-15T09:42:46.208Z,14.13
2024-03-15T09:43:46.142Z,14.17
2024-03-15T09:44:46.048Z,14.12
2024-03-15T09:45:46.042Z,14.10
2024-03-15T09:46:45.944Z,14.10
2024-03-15T09:47:45.955Z,14.07
2024-03-15T09:48:45.886Z,14.04
2024-03-15T09:49:45.817Z,14.02
2024-03-15T09:50:45.730Z,14.06
2024-03-15T09:51:45.748Z,14.06
2024-03-15T09:52:45.674Z,14.10
2024-03-15T09:53:45.554Z,14.13
2024-03-15T09:54:45.505Z,14.12
2024-03-15T09:55:45.424Z,14.16
2024-03-15T09:56:45.314Z,14.16
2024-03-15T09:57:45.385Z,14.17
2024-03-15T09:58:45.195Z,14.16
2024-03-15T09:59:45.164Z,14.16
2024-03-15T10:00:45.116Z,14.14
2024-03-15T10:01:45.103Z,14.12
2024-03-15T10:02:44.954Z,14.10
2024-03-15T10:03:44.974Z,14.09
2024-03-15T10:04:44.831Z,14.10
2024-03-15T10:05:44.772Z,14.10
2024-03-15T10:06:44.688Z,14.10
2024-03-15T10:07:44.632Z,14.12
2024-03-15T10:08:44.572Z,14.10
2024-03-15T10:09:44.538Z,14.12
2024-03-15T10:10:44.427Z,14.12
2024-03-15T10:11:44.377Z,14.13
2024-03-15T10:12:44.477Z,14.12
2024-03-15T10:13:44.420Z,14.12
2024-03-15T10:14:44.204Z,14.13
2024-03-15T10:15:44.145Z,14.17
2024-03-15T10:16:44.037Z,14.25
2024-03-15T10:17:44.109Z,14.29
2024-03-15T10:18:44.002Z,14.29
2024-03-15T10:19:43.976Z,14.32
2024-03-15T10:20:43.833Z,14.32
2024-03-15T10:21:43.765Z,14.32
2024-03-15T10:22:43.657Z,14.34
2024-03-15T10:23:43.589Z,14.37
2024-03-15T10:24:43.556Z,14.35
2024-03-15T10:25:43.435Z,14.35
2024-03-15T10:26:43.363Z,14.37
2024-03-15T10:27:43.584Z,14.42
2024-03-15T10:28:43.232Z,14.45
2024-03-15T10:29:43.235Z,14.47
2024-03-15T10:30:43.124Z,14.53
2024-03-15T10:31:43.179Z,14.60
2024-03-15T10:32:42.972Z,14.64
2024-03-15T10:33:42.943Z,14.65
2024-03-15T10:34:42.911Z,14.67
2024-03-15T10:35:42.746Z,14.74
2024-03-15T10:36:42.704Z,14.81
2024-03-15T10:37:42.635Z,14.86
2024-03-15T10:38:42.524Z,14.91
2024-03-15T10:39:42.639Z,14.98
2024-03-15T10:40:42.357Z,15.03
2024-03-15T10:41:42.338Z,15.05
2024-03-15T10:42:42.240Z,15.09
2024-03-15T10:43:42.140Z,15.12
2024-03-15T10:44:42.066Z,15.19
2024-03-15T10:45:42.025Z,15.23
2024-03-15T10:46:41.911Z,15.27
2024-03-15T10:47:42.188Z,15.35
2024-03-15T10:48:41.847Z,15.39
2024-03-15T10:49:41.797Z,15.42
2024-03-15T10:50:41.605Z,15.48
2024-03-15T10:51:41.533Z,15.53
2024-03-15T10:52:41.414Z,15.60
2024-03-15T10:53:41.358Z,15.66
2024-03-15T10:54:41.396Z,15.71
2024-03-15T10:55:41.202Z,15.75
2024-03-15T10:56:41.076Z,15.75
2024-03-15T10:57:41.073Z,15.79
2024-03-15T10:58:40.966Z,15.81
2024-03-15T10:59:40.877Z,15.76
2024-03-15T11:00:40.894Z,15.79
2024-03-15T11:01:40.860Z,15.79
2024-03-15T11:02:40.566Z,15.81
2024-03-15T11:03:40.554Z,15.81
2024-03-15T11:04:40.402Z,15.81
2024-03-15T11:05:40.278Z,15.81
2024-03-15T11:06:40.309Z,15.79
2024-03-15T11:07:40.243Z,15.76
2024-03-15T11:08:40.027Z,15.74
2024-03-15T11:09:39.984Z,15.74
2024-03-15T11:10:40.002Z,15.74
2024-03-15T11:11:39.782Z,15.72
2024-03-15T11:12:39.714Z,15.75
2024-03-15T11:13:39.564Z,15.74
2024-03-15T11:14:39.462Z,15.74
2024-03-15T11:15:39.414Z,15.75
2024-03-15T11:16:39.314Z,15.75
2024-03-15T11:17:39.196Z,15.76
2024-03-15T11:18:39.357Z,15.78
2024-03-15T11:19:39.005Z,15.81
2024-03-15T11:20:38.911Z,15.82
2024-03-15T11:21:38.847Z,15.86
2024-03-15T11:22:38.734Z,15.89
2024-03-15T11:23:38.622Z,15.94
2024-03-15T11:24:38.604Z,15.97
2024-03-15T11:25:38.441Z,16.01
2024-03-15T11:26:38.336Z,15.97
2024-03-15T11:27:38.328Z,15.99
2024-03-15T11:28:38.153Z,16.00
2024-03-15T11:29:38.058Z,16.04
2024-03-15T11:30:38.043Z,16.11
2024-03-15T11:31:37.897Z,16.22
2024-03-15T11:32:37.776Z,16.27
2024-03-15T11:33:37.791Z,16.33
2024-03-15T11:34:37.620Z,16.35
2024-03-15T11:35:37.943Z,16.43
2024-03-15T11:36:37.428Z,16.46
2024-03-15T11:37:37.310Z,16.50
2024-03-15T11:38:37.200Z,16.55
2024-03-15T11:39:37.209Z,16.59
2024-03-15T11:40:37.037Z,16.67
2024-03-15T11:41:37.933Z,16.70
2024-03-15T11:42:36.848Z,16.73
2024-03-15T11:43:36.760Z,16.77
2024-03-15T11:44:36.604Z,16.78
2024-03-15T11:45:36.684Z,16.82
2024-03-15T11:46:36.413Z,16.88
2024-03-15T11:47:37.640Z,16.88
2024-03-15T11:48:36.263Z,16.90
2024-03-15T11:49:36.091Z,16.93
2024-03-15T11:50:35.990Z,16.93
2024-03-15T11:51:35.918Z,16.95
2024-03-15T11:52:35.754Z,16.96
2024-03-15T11:53:36.672Z,16.96
2024-03-15T11:54:35.577Z,16.96
2024-03-15T11:55:35.473Z,17.03
2024-03-15T11:56:35.342Z,17.01
2024-03-15T11:57:35.371Z,17.06
2024-03-15T11:58:35.102Z,17.04
2024-03-15T11:59:37.409Z,17.10
2024-03-15T12:00:34.973Z,17.08
2024-03-15T12:01:34.906Z,17.10
2024-03-15T12:02:34.697Z,17.08
2024-03-15T12:03:34.665Z,17.08
2024-03-15T12:04:34.521Z,17.14
2024-03-15T12:05:34.832Z,17.15
2024-03-15T12:06:34.306Z,17.19
2024-03-15T12:07:34.163Z,17.22
2024-03-15T12:08:34.008Z,17.25
2024-03-15T12:09:33.970Z,17.29
2024-03-15T12:10:33.791Z,17.37
2024-03-15T12:11:34.394Z,17.38
2024-03-15T12:12:33.560Z,17.38
2024-03-15T12:13:33.493Z,17.37
2024-03-15T12:14:33.324Z,17.38
2024-03-15T12:15:33.395Z,17.41
2024-03-15T12:16:33.098Z,17.38
2024-03-15T12:17:34.936Z,17.41
2024-03-15T12:18:32.932Z,17.40
2024-03-15T12:19:32.790Z,17.41
2024-03-15T12:20:32.647Z,17.46
2024-03-15T12:21:32.573Z,17.47
2024-03-15T12:22:32.406Z,17.53
2024-03-15T12:23:35.421Z,17.54
2024-03-15T12:24:32.200Z,17.58
2024-03-15T12:25:32.085Z,17.63
2024-03-15T12:26:31.935Z,17.64
2024-03-15T12:27:31.833Z,17.66
2024-03-15T12:28:31.713Z,17.67
2024-03-15T12:29:33.366Z,17.69
2024-03-15T12:30:31.541Z,17.78
2024-03-15T12:31:31.368Z,17.75
2024-03-15T12:32:31.239Z,17.78
2024-03-15T12:33:31.243Z,17.78
2024-03-15T12:34:30.987Z,17.79
2024-03-15T12:35:31.551Z,17.79
2024-03-15T12:36:30.760Z,17.81
2024-03-15T12:37:30.654Z,17.81
2024-03-15T12:38:30.529Z,17.84
2024-03-15T12:39:30.467Z,17.81
2024-03-15T12:40:30.292Z,17.81
2024-03-15T12:41:30.192Z,17.77
2024-03-15T12:42:30.075Z,17.75
2024-03-15T12:43:29.927Z,17.72
2024-03-15T12:44:29.788Z,17.70
2024-03-15T12:45:29.735Z,17.72
2024-03-15T12:46:29.541Z,17.75
2024-03-15T12:47:29.435Z,17.79
2024-03-15T12:48:29.331Z,17.84
2024-03-15T12:49:29.183Z,17.84
2024-03-15T12:50:29.080Z,17.85
2024-03-15T12:51:29.203Z,17.84
2024-03-15T12:52:28.833Z,17.88
2024-03-15T12:53:28.693Z,17.89
2024-03-15T12:54:28.593Z,17.91
2024-03-15T12:55:28.477Z,17.93
2024-03-15T12:56:28.320Z,17.97
2024-03-15T12:57:28.214Z,17.97
2024-03-15T12:58:28.099Z,18.00
2024-03-15T12:59:27.959Z,18.02
2024-03-15T13:00:27.879Z,18.02
2024-03-15T13:01:27.770Z,18.03
2024-03-15T13:02:27.625Z,18.04
2024-03-15T13:03:27.523Z,18.07
2024-03-15T13:04:27.349Z,18.03
2024-03-15T13:05:27.291Z,18.04
2024-03-15T13:06:27.132Z,18.06